sensor_id;sensor_type;location;lat;lon;timestamp;pressure;altitude;pressure_sealevel;temperature;humidity
75895;BME280;64573;50.328;15.014;2023-06-24T00:01:56;99325.78;;;14.16;99.28
75895;BME280;64573;50.328;15.014;2023-06-24T00:04:21;99305.94;;;14.23;98.48
75895;BME280;64573;50.328;15.014;2023-06-24T00:06:48;99317.16;;;14.27;97.81
75895;BME280;64573;50.328;15.014;2023-06-24T00:09:13;99310.34;;;14.31;97.80
75895;BME280;64573;50.328;15.014;2023-06-24T00:11:39;99301.16;;;14.25;97.69
75895;BME280;64573;50.328;15.014;2023-06-24T00:14:04;99306.56;;;14.25;97.13
75895;BME280;64573;50.328;15.014;2023-06-24T00:16:31;99329.38;;;14.23;97.30
75895;BME280;64573;50.328;15.014;2023-06-24T00:18:57;99311.56;;;14.28;98.02
75895;BME280;64573;50.328;15.014;2023-06-24T00:21:24;99326.28;;;14.26;97.77
75895;BME280;64573;50.328;15.014;2023-06-24T00:23:57;99309.06;;;14.27;97.12
75895;BME280;64573;50.328;15.014;2023-06-24T00:26:24;99300.56;;;14.30;97.10
75895;BME280;64573;50.328;15.014;2023-06-24T00:28:50;99326.72;;;14.29;97.10
75895;BME280;64573;50.328;15.014;2023-06-24T00:31:15;99327.16;;;14.33;97.07
75895;BME280;64573;50.328;15.014;2023-06-24T00:36:09;99322.00;;;14.38;96.05
75895;BME280;64573;50.328;15.014;2023-06-24T00:41:01;99327.66;;;14.43;95.80
75895;BME280;64573;50.328;15.014;2023-06-24T00:43:27;99325.34;;;14.40;95.29
75895;BME280;64573;50.328;15.014;2023-06-24T00:45:55;99323.91;;;14.44;94.42
75895;BME280;64573;50.328;15.014;2023-06-24T00:48:21;99331.63;;;14.47;94.99
75895;BME280;64573;50.328;15.014;2023-06-24T00:50:47;99335.53;;;14.45;95.23
75895;BME280;64573;50.328;15.014;2023-06-24T00:53:18;99346.34;;;14.45;95.18
75895;BME280;64573;50.328;15.014;2023-06-24T00:55:44;99357.53;;;14.42;94.98
75895;BME280;64573;50.328;15.014;2023-06-24T00:58:11;99357.13;;;14.45;94.03
75895;BME280;64573;50.328;15.014;2023-06-24T01:00:42;99359.84;;;14.45;94.18
75895;BME280;64573;50.328;15.014;2023-06-24T01:03:08;99358.25;;;14.50;93.48
75895;BME280;64573;50.328;15.014;2023-06-24T01:05:34;99358.25;;;14.50;94.46
75895;BME280;64573;50.328;15.014;2023-06-24T01:08:01;99351.41;;;14.54;94.64
75895;BME280;64573;50.328;15.014;2023-06-24T01:10:27;99354.09;;;14.54;94.60
75895;BME280;64573;50.328;15.014;2023-06-24T01:12:52;99348.50;;;14.49;95.12
75895;BME280;64573;50.328;15.014;2023-06-24T01:15:18;99355.56;;;14.50;94.99
75895;BME280;64573;50.328;15.014;2023-06-24T01:20:27;99337.69;;;14.49;95.81
75895;BME280;64573;50.328;15.014;2023-06-24T01:37:08;99372.00;;;14.62;93.72
75895;BME280;64573;50.328;15.014;2023-06-24T01:39:38;99361.88;;;14.64;93.36
75895;BME280;64573;50.328;15.014;2023-06-24T01:44:34;99366.88;;;14.67;92.57
75895;BME280;64573;50.328;15.014;2023-06-24T01:47:02;99373.13;;;14.74;92.55
75895;BME280;64573;50.328;15.014;2023-06-24T01:49:30;99375.84;;;14.74;91.49
75895;BME280;64573;50.328;15.014;2023-06-24T01:51:58;99371.72;;;14.78;91.60
75895;BME280;64573;50.328;15.014;2023-06-24T01:54:28;99373.59;;;14.78;91.80
75895;BME280;64573;50.328;15.014;2023-06-24T01:56:55;99370.88;;;14.78;91.69
75895;BME280;64573;50.328;15.014;2023-06-24T01:59:22;99358.22;;;14.78;91.42
75895;BME280;64573;50.328;15.014;2023-06-24T02:01:48;99356.72;;;14.76;90.59
75895;BME280;64573;50.328;15.014;2023-06-24T02:04:17;99357.59;;;14.83;89.74
75895;BME280;64573;50.328;15.014;2023-06-24T02:06:43;99372.56;;;14.79;89.94
75895;BME280;64573;50.328;15.014;2023-06-24T02:09:10;99358.22;;;14.78;89.97
75895;BME280;64573;50.328;15.014;2023-06-24T02:11:36;99367.97;;;14.79;89.74
75895;BME280;64573;50.328;15.014;2023-06-24T02:14:04;99374.22;;;14.80;89.89
75895;BME280;64573;50.328;15.014;2023-06-24T02:16:30;99380.03;;;14.83;89.78
75895;BME280;64573;50.328;15.014;2023-06-24T02:18:57;99382.41;;;14.93;89.59
75895;BME280;64573;50.328;15.014;2023-06-24T02:21:24;99391.91;;;14.89;88.85
75895;BME280;64573;50.328;15.014;2023-06-24T02:23:51;99390.09;;;14.96;89.30
75895;BME280;64573;50.328;15.014;2023-06-24T02:26:17;99385.50;;;14.97;89.84
75895;BME280;64573;50.328;15.014;2023-06-24T02:28:44;99400.25;;;14.94;89.53
75895;BME280;64573;50.328;15.014;2023-06-24T02:31:12;99401.09;;;14.95;89.90
75895;BME280;64573;50.328;15.014;2023-06-24T02:36:07;99402.34;;;14.92;89.92
75895;BME280;64573;50.328;15.014;2023-06-24T02:38:34;99407.13;;;14.97;89.99
75895;BME280;64573;50.328;15.014;2023-06-24T02:40:59;99407.16;;;15.03;90.17
75895;BME280;64573;50.328;15.014;2023-06-24T02:43:25;99410.06;;;15.02;89.81
75895;BME280;64573;50.328;15.014;2023-06-24T02:45:51;99418.38;;;15.00;89.49
75895;BME280;64573;50.328;15.014;2023-06-24T02:48:18;99411.69;;;14.96;88.97
75895;BME280;64573;50.328;15.014;2023-06-24T02:50:46;99413.81;;;15.01;88.42
75895;BME280;64573;50.328;15.014;2023-06-24T02:53:12;99413.78;;;14.94;90.05
75895;BME280;64573;50.328;15.014;2023-06-24T02:55:40;99422.19;;;14.84;90.65
75895;BME280;64573;50.328;15.014;2023-06-24T02:58:05;99424.31;;;14.89;91.07
75895;BME280;64573;50.328;15.014;2023-06-24T03:00:33;99431.63;;;14.95;90.45
75895;BME280;64573;50.328;15.014;2023-06-24T03:03:00;99435.78;;;14.98;90.87
75895;BME280;64573;50.328;15.014;2023-06-24T03:05:27;99450.78;;;15.00;90.58
75895;BME280;64573;50.328;15.014;2023-06-24T03:07:52;99444.31;;;14.95;90.70
75895;BME280;64573;50.328;15.014;2023-06-24T03:10:18;99446.19;;;14.94;90.65
75895;BME280;64573;50.328;15.014;2023-06-24T03:15:09;99459.06;;;14.99;90.61
75895;BME280;64573;50.328;15.014;2023-06-24T03:17:34;99459.31;;;15.04;90.90
75895;BME280;64573;50.328;15.014;2023-06-24T03:20:00;99470.31;;;15.02;91.18
75895;BME280;64573;50.328;15.014;2023-06-24T03:22:25;99464.03;;;14.95;90.92
75895;BME280;64573;50.328;15.014;2023-06-24T03:24:50;99467.16;;;14.99;91.51
75895;BME280;64573;50.328;15.014;2023-06-24T03:27:18;99473.44;;;14.99;90.80
75895;BME280;64573;50.328;15.014;2023-06-24T03:29:44;99476.13;;;14.99;91.35
75895;BME280;64573;50.328;15.014;2023-06-24T03:32:09;99483.84;;;15.02;91.10
75895;BME280;64573;50.328;15.014;2023-06-24T03:34:34;99477.97;;;14.99;91.81
75895;BME280;64573;50.328;15.014;2023-06-24T03:37:00;99471.53;;;14.93;91.88
75895;BME280;64573;50.328;15.014;2023-06-24T03:39:26;99472.34;;;14.94;92.17
75895;BME280;64573;50.328;15.014;2023-06-24T03:41:51;99474.28;;;15.00;92.18
75895;BME280;64573;50.328;15.014;2023-06-24T03:44:16;99482.69;;;14.90;92.64
75895;BME280;64573;50.328;15.014;2023-06-24T03:46:42;99479.06;;;15.04;92.53
75895;BME280;64573;50.328;15.014;2023-06-24T03:49:07;99479.78;;;14.92;92.86
75895;BME280;64573;50.328;15.014;2023-06-24T03:51:32;99484.81;;;14.95;93.23
75895;BME280;64573;50.328;15.014;2023-06-24T03:53:58;99483.69;;;14.82;93.40
75895;BME280;64573;50.328;15.014;2023-06-24T03:56:23;99486.69;;;14.94;93.11
75895;BME280;64573;50.328;15.014;2023-06-24T03:58:48;99479.84;;;14.98;92.78
75895;BME280;64573;50.328;15.014;2023-06-24T04:01:14;99488.16;;;14.97;92.96
75895;BME280;64573;50.328;15.014;2023-06-24T04:06:06;99485.03;;;14.93;92.82
75895;BME280;64573;50.328;15.014;2023-06-24T04:08:32;99487.47;;;14.88;93.14
75895;BME280;64573;50.328;15.014;2023-06-24T04:10:58;99489.97;;;14.89;93.38
75895;BME280;64573;50.328;15.014;2023-06-24T04:15:55;99488.50;;;14.87;93.86
75895;BME280;64573;50.328;15.014;2023-06-24T04:18:20;99493.28;;;14.85;93.93
75895;BME280;64573;50.328;15.014;2023-06-24T04:20:46;99490.59;;;14.92;94.19
75895;BME280;64573;50.328;15.014;2023-06-24T04:23:12;99491.25;;;14.94;94.79
75895;BME280;64573;50.328;15.014;2023-06-24T04:25:39;99495.63;;;14.95;94.81
75895;BME280;64573;50.328;15.014;2023-06-24T04:28:05;99508.19;;;15.09;93.83
75895;BME280;64573;50.328;15.014;2023-06-24T04:30:31;99505.22;;;15.04;94.12
75895;BME280;64573;50.328;15.014;2023-06-24T04:32:56;99501.22;;;14.93;94.26
75895;BME280;64573;50.328;15.014;2023-06-24T04:35:22;99507.47;;;14.94;94.86
75895;BME280;64573;50.328;15.014;2023-06-24T04:37:47;99495.81;;;14.93;94.92
75895;BME280;64573;50.328;15.014;2023-06-24T04:40:16;99502.88;;;14.94;94.36
75895;BME280;64573;50.328;15.014;2023-06-24T04:42:41;99499.16;;;14.95;95.19
75895;BME280;64573;50.328;15.014;2023-06-24T04:45:07;99508.34;;;15.01;94.64
75895;BME280;64573;50.328;15.014;2023-06-24T04:47:32;99507.34;;;15.08;94.66
75895;BME280;64573;50.328;15.014;2023-06-24T04:49:58;99505.28;;;15.10;94.34
75895;BME280;64573;50.328;15.014;2023-06-24T04:52:23;99516.50;;;15.07;94.46
75895;BME280;64573;50.328;15.014;2023-06-24T04:54:49;99520.09;;;15.14;94.07
75895;BME280;64573;50.328;15.014;2023-06-24T04:59:49;99520.72;;;15.16;93.64
75895;BME280;64573;50.328;15.014;2023-06-24T05:02:14;99519.34;;;15.34;93.50
75895;BME280;64573;50.328;15.014;2023-06-24T05:04:40;99524.50;;;15.22;93.55
75895;BME280;64573;50.328;15.014;2023-06-24T05:07:05;99530.41;;;15.39;93.06
75895;BME280;64573;50.328;15.014;2023-06-24T05:09:30;99525.28;;;15.51;93.20
75895;BME280;64573;50.328;15.014;2023-06-24T05:11:56;99532.31;;;15.45;92.30
75895;BME280;64573;50.328;15.014;2023-06-24T05:14:21;99533.53;;;15.36;92.66
75895;BME280;64573;50.328;15.014;2023-06-24T05:16:46;99529.53;;;15.32;92.91
75895;BME280;64573;50.328;15.014;2023-06-24T05:19:11;99538.75;;;15.44;93.05
75895;BME280;64573;50.328;15.014;2023-06-24T05:21:37;99543.25;;;15.30;93.09
75895;BME280;64573;50.328;15.014;2023-06-24T05:24:02;99550.72;;;15.28;93.01
75895;BME280;64573;50.328;15.014;2023-06-24T05:26:28;99560.03;;;15.26;93.55
75895;BME280;64573;50.328;15.014;2023-06-24T05:28:53;99559.00;;;15.27;93.47
75895;BME280;64573;50.328;15.014;2023-06-24T05:31:18;99546.16;;;15.29;94.50
75895;BME280;64573;50.328;15.014;2023-06-24T05:33:44;99559.22;;;15.25;94.73
75895;BME280;64573;50.328;15.014;2023-06-24T05:36:09;99559.38;;;15.17;95.03
75895;BME280;64573;50.328;15.014;2023-06-24T05:38:34;99562.13;;;15.24;95.13
75895;BME280;64573;50.328;15.014;2023-06-24T05:41:00;99562.31;;;15.22;95.73
75895;BME280;64573;50.328;15.014;2023-06-24T05:43:27;99573.97;;;15.23;95.83
75895;BME280;64573;50.328;15.014;2023-06-24T05:45:53;99573.75;;;15.24;95.57
75895;BME280;64573;50.328;15.014;2023-06-24T05:48:18;99565.25;;;15.27;95.92
75895;BME280;64573;50.328;15.014;2023-06-24T05:50:43;99567.28;;;15.18;95.37
75895;BME280;64573;50.328;15.014;2023-06-24T05:53:09;99570.31;;;15.37;95.25
75895;BME280;64573;50.328;15.014;2023-06-24T05:55:34;99565.03;;;15.57;94.95
75895;BME280;64573;50.328;15.014;2023-06-24T05:58:00;99565.38;;;15.47;94.66
75895;BME280;64573;50.328;15.014;2023-06-24T06:00:25;99585.13;;;15.48;94.38
75895;BME280;64573;50.328;15.014;2023-06-24T06:02:50;99587.50;;;15.57;94.25
75895;BME280;64573;50.328;15.014;2023-06-24T06:05:15;99584.59;;;15.59;94.34
75895;BME280;64573;50.328;15.014;2023-06-24T06:07:41;99597.44;;;15.50;94.39
75895;BME280;64573;50.328;15.014;2023-06-24T06:10:07;99588.13;;;15.59;94.62
75895;BME280;64573;50.328;15.014;2023-06-24T06:12:33;99594.34;;;15.53;95.63
75895;BME280;64573;50.328;15.014;2023-06-24T06:14:59;99590.22;;;15.57;95.19
75895;BME280;64573;50.328;15.014;2023-06-24T06:17:24;99593.16;;;15.62;95.83
75895;BME280;64573;50.328;15.014;2023-06-24T06:19:49;99593.22;;;15.69;95.02
75895;BME280;64573;50.328;15.014;2023-06-24T06:22:15;99597.19;;;15.73;94.66
75895;BME280;64573;50.328;15.014;2023-06-24T06:24:41;99594.56;;;15.86;94.73
75895;BME280;64573;50.328;15.014;2023-06-24T06:27:10;99603.38;;;16.02;94.60
75895;BME280;64573;50.328;15.014;2023-06-24T06:29:36;99602.16;;;16.11;94.26
75895;BME280;64573;50.328;15.014;2023-06-24T06:32:02;99601.34;;;16.10;94.13
75895;BME280;64573;50.328;15.014;2023-06-24T06:34:28;99602.59;;;16.21;93.82
75895;BME280;64573;50.328;15.014;2023-06-24T06:36:53;99605.31;;;16.21;93.43
75895;BME280;64573;50.328;15.014;2023-06-24T06:39:19;99600.19;;;16.39;92.89
75895;BME280;64573;50.328;15.014;2023-06-24T06:41:44;99607.44;;;16.32;93.04
75895;BME280;64573;50.328;15.014;2023-06-24T06:44:09;99598.31;;;16.40;92.69
75895;BME280;64573;50.328;15.014;2023-06-24T06:46:35;99601.09;;;16.60;92.42
75895;BME280;64573;50.328;15.014;2023-06-24T06:49:00;99603.81;;;16.66;91.93
75895;BME280;64573;50.328;15.014;2023-06-24T06:51:25;99596.88;;;16.50;92.07
75895;BME280;64573;50.328;15.014;2023-06-24T06:53:51;99596.34;;;16.75;91.50
75895;BME280;64573;50.328;15.014;2023-06-24T06:56:24;99603.41;;;16.69;91.21
75895;BME280;64573;50.328;15.014;2023-06-24T06:58:50;99602.22;;;17.18;90.78
75895;BME280;64573;50.328;15.014;2023-06-24T07:01:15;99593.03;;;17.32;89.85
75895;BME280;64573;50.328;15.014;2023-06-24T07:03:40;99601.16;;;17.39;88.72
75895;BME280;64573;50.328;15.014;2023-06-24T07:06:06;99599.28;;;17.53;87.64
75895;BME280;64573;50.328;15.014;2023-06-24T07:08:34;99593.41;;;17.62;86.53
75895;BME280;64573;50.328;15.014;2023-06-24T07:10:59;99598.13;;;17.94;86.37
75895;BME280;64573;50.328;15.014;2023-06-24T07:13:25;99594.38;;;17.95;85.94
75895;BME280;64573;50.328;15.014;2023-06-24T07:15:50;99600.63;;;18.02;84.83
75895;BME280;64573;50.328;15.014;2023-06-24T07:18:15;99595.38;;;18.13;84.43
75895;BME280;64573;50.328;15.014;2023-06-24T07:20:40;99604.25;;;18.34;84.81
75895;BME280;64573;50.328;15.014;2023-06-24T07:23:06;99602.34;;;18.41;83.75
75895;BME280;64573;50.328;15.014;2023-06-24T07:25:31;99596.31;;;18.77;82.30
75895;BME280;64573;50.328;15.014;2023-06-24T07:27:57;99599.00;;;19.09;81.42
75895;BME280;64573;50.328;15.014;2023-06-24T07:30:22;99600.56;;;18.98;80.14
75895;BME280;64573;50.328;15.014;2023-06-24T07:32:47;99603.41;;;19.03;80.04
75895;BME280;64573;50.328;15.014;2023-06-24T07:35:13;99598.91;;;19.40;80.97
75895;BME280;64573;50.328;15.014;2023-06-24T07:37:38;99601.97;;;19.57;78.43
75895;BME280;64573;50.328;15.014;2023-06-24T07:40:05;99594.19;;;19.97;77.28
75895;BME280;64573;50.328;15.014;2023-06-24T07:42:30;99597.53;;;19.99;78.28
75895;BME280;64573;50.328;15.014;2023-06-24T07:44:56;99604.72;;;20.42;76.10
75895;BME280;64573;50.328;15.014;2023-06-24T07:47:21;99603.84;;;20.11;75.63
75895;BME280;64573;50.328;15.014;2023-06-24T07:49:47;99601.25;;;20.35;73.55
75895;BME280;64573;50.328;15.014;2023-06-24T07:52:12;99603.53;;;20.38;74.53
75895;BME280;64573;50.328;15.014;2023-06-24T07:54:37;99593.78;;;20.30;74.29
75895;BME280;64573;50.328;15.014;2023-06-24T07:57:03;99586.25;;;19.96;75.39
75895;BME280;64573;50.328;15.014;2023-06-24T07:59:28;99591.44;;;20.64;72.27
75895;BME280;64573;50.328;15.014;2023-06-24T08:01:54;99596.75;;;20.89;70.16
75895;BME280;64573;50.328;15.014;2023-06-24T08:04:19;99602.59;;;22.21;67.53
75895;BME280;64573;50.328;15.014;2023-06-24T08:06:45;99604.16;;;21.12;65.32
75895;BME280;64573;50.328;15.014;2023-06-24T08:09:11;99605.41;;;20.86;67.75
75895;BME280;64573;50.328;15.014;2023-06-24T08:11:36;99601.50;;;20.52;68.59
75895;BME280;64573;50.328;15.014;2023-06-24T08:14:01;99611.16;;;20.78;68.34
75895;BME280;64573;50.328;15.014;2023-06-24T08:16:27;99611.69;;;20.86;67.27
75895;BME280;64573;50.328;15.014;2023-06-24T08:21:25;99613.53;;;20.74;67.61
75895;BME280;64573;50.328;15.014;2023-06-24T08:23:50;99625.28;;;21.16;65.97
75895;BME280;64573;50.328;15.014;2023-06-24T08:26:16;99614.28;;;21.70;64.82
75895;BME280;64573;50.328;15.014;2023-06-24T08:28:42;99618.06;;;21.92;63.67
75895;BME280;64573;50.328;15.014;2023-06-24T08:31:07;99614.44;;;22.39;62.44
75895;BME280;64573;50.328;15.014;2023-06-24T08:33:33;99618.72;;;21.06;65.72
75895;BME280;64573;50.328;15.014;2023-06-24T08:38:27;99615.13;;;21.35;63.40
75895;BME280;64573;50.328;15.014;2023-06-24T08:40:53;99617.16;;;21.75;62.82
75895;BME280;64573;50.328;15.014;2023-06-24T08:43:18;99606.41;;;22.20;60.01
75895;BME280;64573;50.328;15.014;2023-06-24T08:45:43;99612.19;;;22.64;60.45
75895;BME280;64573;50.328;15.014;2023-06-24T08:48:10;99618.81;;;21.76;59.47
75895;BME280;64573;50.328;15.014;2023-06-24T08:50:40;99621.91;;;22.43;61.91
75895;BME280;64573;50.328;15.014;2023-06-24T08:53:09;99616.13;;;22.28;58.79
75895;BME280;64573;50.328;15.014;2023-06-24T08:55:43;99614.63;;;21.97;60.90
75895;BME280;64573;50.328;15.014;2023-06-24T08:58:08;99616.03;;;22.92;58.58
75895;BME280;64573;50.328;15.014;2023-06-24T09:00:34;99620.63;;;23.70;54.40
75895;BME280;64573;50.328;15.014;2023-06-24T09:02:59;99614.66;;;22.37;59.58
75895;BME280;64573;50.328;15.014;2023-06-24T09:05:25;99622.00;;;22.48;56.67
75895;BME280;64573;50.328;15.014;2023-06-24T09:07:50;99628.50;;;23.66;54.19
75895;BME280;64573;50.328;15.014;2023-06-24T09:10:30;99620.78;;;24.68;51.10
75895;BME280;64573;50.328;15.014;2023-06-24T09:12:56;99616.84;;;23.93;52.31
75895;BME280;64573;50.328;15.014;2023-06-24T09:15:22;99614.88;;;24.54;51.28
75895;BME280;64573;50.328;15.014;2023-06-24T09:17:47;99611.38;;;24.59;51.56
75895;BME280;64573;50.328;15.014;2023-06-24T09:20:12;99616.31;;;23.41;56.19
75895;BME280;64573;50.328;15.014;2023-06-24T09:22:40;99613.94;;;24.92;50.36
75895;BME280;64573;50.328;15.014;2023-06-24T09:25:07;99613.91;;;25.89;46.75
75895;BME280;64573;50.328;15.014;2023-06-24T09:27:32;99618.75;;;25.39;49.36
75895;BME280;64573;50.328;15.014;2023-06-24T09:30:00;99619.84;;;26.23;48.45
75895;BME280;64573;50.328;15.014;2023-06-24T09:32:43;99610.44;;;25.66;45.90
75895;BME280;64573;50.328;15.014;2023-06-24T09:35:09;99607.94;;;25.27;46.96
75895;BME280;64573;50.328;15.014;2023-06-24T09:37:35;99613.38;;;24.41;50.79
75895;BME280;64573;50.328;15.014;2023-06-24T09:40:00;99612.56;;;24.68;48.23
75895;BME280;64573;50.328;15.014;2023-06-24T09:42:27;99605.66;;;25.14;46.58
75895;BME280;64573;50.328;15.014;2023-06-24T09:44:55;99609.50;;;24.91;48.57
75895;BME280;64573;50.328;15.014;2023-06-24T09:47:21;99609.63;;;25.71;45.85
75895;BME280;64573;50.328;15.014;2023-06-24T09:49:51;99611.16;;;25.19;47.69
75895;BME280;64573;50.328;15.014;2023-06-24T09:52:17;99617.06;;;24.52;48.33
75895;BME280;64573;50.328;15.014;2023-06-24T09:54:46;99614.59;;;24.78;47.13
75895;BME280;64573;50.328;15.014;2023-06-24T09:57:15;99608.06;;;24.84;47.42
75895;BME280;64573;50.328;15.014;2023-06-24T09:59:43;99604.25;;;24.36;50.35
75895;BME280;64573;50.328;15.014;2023-06-24T10:04:40;99609.81;;;24.95;49.67
75895;BME280;64573;50.328;15.014;2023-06-24T10:07:06;99609.88;;;25.69;47.09
75895;BME280;64573;50.328;15.014;2023-06-24T10:09:32;99605.78;;;26.97;45.63
75895;BME280;64573;50.328;15.014;2023-06-24T10:11:57;99614.84;;;28.64;41.45
75895;BME280;64573;50.328;15.014;2023-06-24T10:14:23;99614.28;;;27.97;41.83
75895;BME280;64573;50.328;15.014;2023-06-24T10:16:49;99609.63;;;27.52;43.57
75895;BME280;64573;50.328;15.014;2023-06-24T10:19:23;99608.56;;;27.48;43.65
75895;BME280;64573;50.328;15.014;2023-06-24T10:22:02;99603.84;;;26.87;42.10
75895;BME280;64573;50.328;15.014;2023-06-24T10:24:32;99597.47;;;26.72;43.61
75895;BME280;64573;50.328;15.014;2023-06-24T10:27:05;99605.28;;;26.22;44.72
75895;BME280;64573;50.328;15.014;2023-06-24T10:29:32;99598.31;;;26.92;42.86
75895;BME280;64573;50.328;15.014;2023-06-24T10:32:02;99598.06;;;27.50;41.86
75895;BME280;64573;50.328;15.014;2023-06-24T10:34:31;99602.97;;;27.94;40.29
75895;BME280;64573;50.328;15.014;2023-06-24T10:44:45;99588.91;;;26.58;43.25
75895;BME280;64573;50.328;15.014;2023-06-24T10:47:11;99592.59;;;27.40;43.44
75895;BME280;64573;50.328;15.014;2023-06-24T10:49:36;99587.06;;;27.14;44.01
75895;BME280;64573;50.328;15.014;2023-06-24T10:52:02;99590.31;;;27.88;41.89
75895;BME280;64573;50.328;15.014;2023-06-24T10:54:27;99584.25;;;27.91;40.14
75895;BME280;64573;50.328;15.014;2023-06-24T10:56:53;99578.78;;;27.55;42.12
75895;BME280;64573;50.328;15.014;2023-06-24T10:59:20;99575.75;;;27.82;40.95
75895;BME280;64573;50.328;15.014;2023-06-24T11:01:55;99574.13;;;27.15;42.71
75895;BME280;64573;50.328;15.014;2023-06-24T11:04:20;99576.06;;;27.35;43.77
75895;BME280;64573;50.328;15.014;2023-06-24T11:07:02;99568.13;;;28.34;41.31
75895;BME280;64573;50.328;15.014;2023-06-24T11:09:27;99568.59;;;27.51;41.31
75895;BME280;64573;50.328;15.014;2023-06-24T11:11:53;99573.00;;;26.85;42.70
75895;BME280;64573;50.328;15.014;2023-06-24T11:14:22;99565.53;;;26.71;41.12
75895;BME280;64573;50.328;15.014;2023-06-24T11:16:47;99561.16;;;26.70;40.08
75895;BME280;64573;50.328;15.014;2023-06-24T11:22:23;99548.78;;;28.28;37.35
75895;BME280;64573;50.328;15.014;2023-06-24T11:24:49;99549.22;;;29.00;37.15
75895;BME280;64573;50.328;15.014;2023-06-24T11:29:53;99548.59;;;28.10;38.53
75895;BME280;64573;50.328;15.014;2023-06-24T11:32:19;99549.38;;;28.25;39.64
75895;BME280;64573;50.328;15.014;2023-06-24T11:34:46;99555.09;;;27.54;38.00
75895;BME280;64573;50.328;15.014;2023-06-24T11:37:13;99554.00;;;26.99;39.57
75895;BME280;64573;50.328;15.014;2023-06-24T11:39:38;99547.38;;;27.56;39.21
75895;BME280;64573;50.328;15.014;2023-06-24T11:42:06;99538.31;;;28.30;36.87
75895;BME280;64573;50.328;15.014;2023-06-24T11:44:33;99545.50;;;28.26;36.72
75895;BME280;64573;50.328;15.014;2023-06-24T11:47:09;99536.97;;;27.38;35.65
75895;BME280;64573;50.328;15.014;2023-06-24T11:49:55;99537.25;;;27.21;36.12
75895;BME280;64573;50.328;15.014;2023-06-24T11:52:43;99526.69;;;27.59;38.00
75895;BME280;64573;50.328;15.014;2023-06-24T11:55:21;99530.50;;;26.30;39.17
75895;BME280;64573;50.328;15.014;2023-06-24T11:58:03;99524.16;;;26.25;42.16
75895;BME280;64573;50.328;15.014;2023-06-24T12:00:40;99523.28;;;26.14;43.20
75895;BME280;64573;50.328;15.014;2023-06-24T12:03:09;99518.09;;;26.18;41.92
75895;BME280;64573;50.328;15.014;2023-06-24T12:05:36;99521.69;;;27.81;39.21
75895;BME280;64573;50.328;15.014;2023-06-24T12:08:05;99530.31;;;25.37;40.93
75895;BME280;64573;50.328;15.014;2023-06-24T12:10:32;99514.22;;;26.08;43.14
75895;BME280;64573;50.328;15.014;2023-06-24T12:12:59;99512.44;;;27.36;39.69
75895;BME280;64573;50.328;15.014;2023-06-24T12:15:25;99514.19;;;28.56;35.18
75895;BME280;64573;50.328;15.014;2023-06-24T12:17:51;99512.63;;;28.79;36.92
75895;BME280;64573;50.328;15.014;2023-06-24T12:20:16;99514.41;;;25.92;41.40
75895;BME280;64573;50.328;15.014;2023-06-24T12:22:44;99502.97;;;25.10;44.48
75895;BME280;64573;50.328;15.014;2023-06-24T12:25:10;99504.56;;;24.74;44.73
75895;BME280;64573;50.328;15.014;2023-06-24T12:27:35;99499.91;;;24.74;45.92
75895;BME280;64573;50.328;15.014;2023-06-24T12:30:01;99499.91;;;25.49;44.99
75895;BME280;64573;50.328;15.014;2023-06-24T12:32:27;99504.75;;;27.23;41.30
75895;BME280;64573;50.328;15.014;2023-06-24T12:34:52;99494.47;;;28.34;38.33
75895;BME280;64573;50.328;15.014;2023-06-24T12:37:18;99505.44;;;28.39;39.43
75895;BME280;64573;50.328;15.014;2023-06-24T12:39:44;99505.59;;;28.09;40.31
75895;BME280;64573;50.328;15.014;2023-06-24T12:44:35;99487.50;;;28.47;36.52
75895;BME280;64573;50.328;15.014;2023-06-24T12:47:00;99495.44;;;27.99;37.22
75895;BME280;64573;50.328;15.014;2023-06-24T12:49:25;99489.00;;;27.44;37.99
75895;BME280;64573;50.328;15.014;2023-06-24T12:51:51;99481.03;;;27.42;38.33
75895;BME280;64573;50.328;15.014;2023-06-24T12:54:17;99489.03;;;28.14;36.96
75895;BME280;64573;50.328;15.014;2023-06-24T12:56:43;99494.97;;;26.13;41.15
75895;BME280;64573;50.328;15.014;2023-06-24T12:59:08;99488.06;;;25.96;42.25
75895;BME280;64573;50.328;15.014;2023-06-24T13:01:34;99487.41;;;26.92;38.84
75895;BME280;64573;50.328;15.014;2023-06-24T13:03:59;99484.34;;;28.14;36.25
75895;BME280;64573;50.328;15.014;2023-06-24T13:06:25;99497.50;;;28.72;36.20
75895;BME280;64573;50.328;15.014;2023-06-24T13:08:50;99485.56;;;27.88;36.43
75895;BME280;64573;50.328;15.014;2023-06-24T13:11:15;99489.66;;;28.00;37.32
75895;BME280;64573;50.328;15.014;2023-06-24T13:13:41;99485.31;;;27.84;35.51
75895;BME280;64573;50.328;15.014;2023-06-24T13:16:06;99483.66;;;28.38;38.74
75895;BME280;64573;50.328;15.014;2023-06-24T13:18:31;99488.66;;;27.76;36.63
75895;BME280;64573;50.328;15.014;2023-06-24T13:20:57;99486.59;;;26.81;38.40
75895;BME280;64573;50.328;15.014;2023-06-24T13:23:22;99482.66;;;26.31;39.30
75895;BME280;64573;50.328;15.014;2023-06-24T13:25:47;99479.91;;;27.48;37.18
75895;BME280;64573;50.328;15.014;2023-06-24T13:28:13;99482.72;;;27.23;38.11
75895;BME280;64573;50.328;15.014;2023-06-24T13:30:38;99477.50;;;26.76;39.31
75895;BME280;64573;50.328;15.014;2023-06-24T13:33:03;99481.88;;;27.38;38.22
75895;BME280;64573;50.328;15.014;2023-06-24T13:35:29;99481.50;;;27.75;35.80
75895;BME280;64573;50.328;15.014;2023-06-24T13:37:54;99474.81;;;27.96;36.64
75895;BME280;64573;50.328;15.014;2023-06-24T13:40:20;99477.63;;;27.76;36.32
75895;BME280;64573;50.328;15.014;2023-06-24T13:42:47;99478.16;;;28.38;36.82
75895;BME280;64573;50.328;15.014;2023-06-24T13:45:13;99484.38;;;28.53;35.95
75895;BME280;64573;50.328;15.014;2023-06-24T13:47:38;99477.53;;;28.46;34.90